Time;durP1;ratioP1;P1;durP2;ratioP2;P2;SDS_P1;SDS_P2;PMS_P1;PMS_P2;Temp;Humidity;BMP_temperature;BMP_pressure;BME280_temperature;BME280_humidity;BME280_pressure;Samples;Min_cycle;Max_cycle;Signal;HPM_P1;HPM_P2
2022/11/21 00:01:20;;;;;;;31.65;18.30;;;;;;;6.81;93.13;100303.38;4972387;28;20047;-69
2022/11/21 00:03:48;;;;;;;35.85;19.67;;;;;;;6.90;92.57;100300.97;4957243;29;20402;-69
2022/11/21 00:06:17;;;;;;;33.75;18.27;;;;;;;6.83;92.28;100287.59;4965248;28;20512;-69
2022/11/21 00:08:46;;;;;;;29.20;17.92;;;;;;;6.88;92.51;100286.81;4975873;28;20047;-69
2022/11/21 00:11:14;;;;;;;30.58;18.27;;;;;;;6.92;92.62;100274.31;4975747;28;20051;-69
2022/11/21 00:13:42;;;;;;;34.22;18.10;;;;;;;6.97;92.56;100275.19;4956911;28;20058;-69
2022/11/21 00:16:13;;;;;;;31.80;16.92;;;;;;;7.03;92.45;100269.78;4960166;28;20054;-69
2022/11/21 00:18:42;;;;;;;33.50;19.58;;;;;;;7.06;91.87;100272.78;4975081;28;20053;-69
2022/11/21 00:21:15;;;;;;;34.13;18.40;;;;;;;7.05;91.66;100278.47;4975362;28;20066;-69
2022/11/21 00:23:44;;;;;;;34.13;18.13;;;;;;;7.05;91.85;100289.38;4975383;28;20051;-69
2022/11/21 00:26:14;;;;;;;31.73;16.90;;;;;;;6.89;91.71;100281.09;4975419;28;20121;-69
2022/11/21 00:28:42;;;;;;;33.30;16.48;;;;;;;6.88;92.40;100286.81;4973233;28;20051;-69
2022/11/21 00:31:24;;;;;;;28.52;17.58;;;;;;;6.91;91.77;100292.56;4974779;28;20054;-69
2022/11/21 00:33:51;;;;;;;33.08;18.33;;;;;;;6.89;92.05;100302.06;4975609;28;20050;-69
2022/11/21 00:36:19;;;;;;;33.10;17.95;;;;;;;6.96;92.09;100300.75;4974781;28;20505;-69
2022/11/21 00:38:47;;;;;;;30.50;17.88;;;;;;;7.00;91.87;100301.03;4974730;28;20057;-69
2022/11/21 00:41:15;;;;;;;30.38;17.98;;;;;;;6.94;91.73;100292.00;4975239;28;20517;-69
2022/11/21 00:43:43;;;;;;;34.92;18.15;;;;;;;6.82;91.99;100288.69;4975632;28;20058;-69
2022/11/21 00:46:10;;;;;;;33.65;16.88;;;;;;;6.81;91.93;100293.31;4975274;28;20057;-69
2022/11/21 00:48:38;;;;;;;30.75;17.63;;;;;;;6.80;93.02;100288.13;4975607;28;20051;-69
2022/11/21 00:51:06;;;;;;;30.83;17.60;;;;;;;6.78;92.41;100287.56;4973509;28;20054;-69
2022/11/21 00:53:34;;;;;;;30.80;18.20;;;;;;;6.80;92.53;100299.00;4975175;28;20195;-69
2022/11/21 00:56:02;;;;;;;33.38;17.70;;;;;;;6.78;93.06;100298.44;4974828;28;20053;-69
2022/11/21 00:58:30;;;;;;;33.78;17.83;;;;;;;6.85;92.42;100299.84;4974571;28;20059;-69
2022/11/21 01:01:07;;;;;;;28.77;16.98;;;;;;;6.80;92.49;100297.09;4974070;28;20058;-69
2022/11/21 01:03:35;;;;;;;30.83;16.08;;;;;;;6.75;93.81;100293.53;4975197;28;20055;-69
2022/11/21 01:06:07;;;;;;;34.75;15.88;;;;;;;6.69;93.36;100288.06;4972065;28;20055;-69
2022/11/21 01:08:37;;;;;;;31.20;17.85;;;;;;;6.71;93.17;100294.03;4973446;28;20505;-69
2022/11/21 01:11:10;;;;;;;31.00;16.98;;;;;;;6.55;93.21;100297.75;4974921;28;20476;-69
2022/11/21 01:13:39;;;;;;;33.33;17.38;;;;;;;6.44;93.75;100281.34;4975309;28;20478;-69
2022/11/21 01:16:13;;;;;;;34.78;17.25;;;;;;;6.44;94.25;100281.34;4974372;28;20062;-69
2022/11/21 01:18:41;;;;;;;32.15;16.38;;;;;;;6.35;94.81;100277.44;4975128;28;20061;-69
2022/11/21 01:21:15;;;;;;;29.80;17.13;;;;;;;6.30;95.45;100266.53;4974641;28;20051;-69
2022/11/21 01:23:44;;;;;;;32.40;17.67;;;;;;;6.30;95.69;100271.97;4974176;28;20410;-69
2022/11/21 01:26:14;;;;;;;33.28;17.85;;;;;;;6.36;95.10;100265.50;4973973;28;20062;-69
2022/11/21 01:28:43;;;;;;;32.20;18.10;;;;;;;6.32;94.93;100269.84;4974340;28;20482;-69
2022/11/21 01:31:17;;;;;;;30.98;18.05;;;;;;;6.23;95.52;100272.19;4973352;28;20051;-69
2022/11/21 01:33:46;;;;;;;27.63;16.65;;;;;;;6.16;95.86;100274.31;4974861;28;20059;-69
2022/11/21 01:36:21;;;;;;;30.52;17.52;;;;;;;6.18;95.23;100274.88;4973134;28;20466;-69
2022/11/21 01:38:54;;;;;;;29.00;16.70;;;;;;;6.16;95.47;100285.19;4973375;28;20062;-69
2022/11/21 01:41:25;;;;;;;30.90;16.35;;;;;;;6.11;95.73;100280.50;4974773;28;20047;-69
2022/11/21 01:43:53;;;;;;;28.00;15.85;;;;;;;6.08;95.39;100289.19;4974611;28;20045;-69
2022/11/21 01:46:23;;;;;;;26.55;16.02;;;;;;;5.96;95.21;100296.63;4973591;28;20054;-69
2022/11/21 01:49:01;;;;;;;30.05;17.13;;;;;;;5.82;95.92;100299.72;4974557;28;20491;-69
2022/11/21 01:51:29;;;;;;;29.15;17.05;;;;;;;5.81;96.82;100295.38;4973898;28;20413;-69
2022/11/21 01:54:02;;;;;;;27.90;17.58;;;;;;;5.87;96.46;100299.78;4970721;28;20051;-69
2022/11/21 01:56:38;;;;;;;38.03;17.93;;;;;;;5.88;96.48;100304.13;4972914;28;20054;-69
2022/11/21 01:59:11;;;;;;;28.90;16.13;;;;;;;5.81;96.57;100289.94;4974355;28;20058;-69
2022/11/21 02:01:38;;;;;;;28.42;16.92;;;;;;;5.86;96.19;100290.00;4974139;28;20066;-69
2022/11/21 02:04:07;;;;;;;30.98;17.35;;;;;;;5.83;95.97;100297.84;4973323;28;20054;-70
2022/11/21 02:06:36;;;;;;;30.23;16.23;;;;;;;5.79;95.98;100292.09;4972909;28;20050;-69
2022/11/21 02:09:05;;;;;;;31.60;16.15;;;;;;;5.75;96.28;100291.81;4973294;28;20047;-69
2022/11/21 02:11:56;;;;;;;30.70;16.85;;;;;;;5.75;96.63;100293.69;4972511;28;20493;-69
2022/11/21 02:14:25;;;;;;;27.88;15.90;;;;;;;5.76;97.06;100285.28;4973565;28;20035;-69
2022/11/21 02:16:59;;;;;;;30.58;17.17;;;;;;;5.71;97.05;100284.44;4972171;28;20058;-69
2022/11/21 02:19:42;;;;;;;28.92;16.88;;;;;;;5.65;97.55;100289.78;4973842;28;20063;-69
2022/11/21 02:22:20;;;;;;;29.98;16.33;;;;;;;5.59;97.55;100282.66;4972946;28;20051;-69
2022/11/21 02:25:17;;;;;;;30.33;16.60;;;;;;;5.58;97.22;100280.19;4972628;28;20058;-69
2022/11/21 02:27:45;;;;;;;29.95;16.98;;;;;;;5.55;97.07;100278.81;4957871;28;20054;-69
2022/11/21 02:30:14;;;;;;;33.42;18.50;;;;;;;5.55;97.48;100278.81;4973917;28;20054;-69
2022/11/21 02:32:47;;;;;;;30.95;17.80;;;;;;;5.54;97.52;100281.78;4973242;28;20055;-69
2022/11/21 02:35:17;;;;;;;30.88;17.15;;;;;;;5.59;97.82;100277.25;4971159;28;20047;-69
2022/11/21 02:37:57;;;;;;;31.88;16.83;;;;;;;5.58;97.50;100277.50;4973184;28;20054;-69
2022/11/21 02:40:30;;;;;;;28.67;17.58;;;;;;;5.63;97.58;100275.63;4973250;28;20450;-69
2022/11/21 02:43:20;;;;;;;25.25;15.43;;;;;;;5.53;96.87;100270.13;4972084;28;20053;-70
2022/11/21 02:45:49;;;;;;;25.98;13.98;;;;;;;5.50;96.59;100273.31;4970456;28;20065;-70
2022/11/21 02:48:17;;;;;;;27.33;15.27;;;;;;;5.55;96.91;100267.13;4972710;28;20078;-69
2022/11/21 02:50:46;;;;;;;25.23;14.10;;;;;;;5.51;96.39;100253.25;4973181;28;20055;-69
2022/11/21 02:53:16;;;;;;;22.05;13.63;;;;;;;5.46;96.21;100256.72;4972788;28;20066;-69
2022/11/21 02:55:45;;;;;;;25.10;13.82;;;;;;;5.38;95.66;100241.69;4971876;28;20050;-69
2022/11/21 02:58:13;;;;;;;20.70;12.95;;;;;;;5.35;95.81;100239.50;4973086;28;20398;-69
2022/11/21 03:00:42;;;;;;;26.45;14.35;;;;;;;5.41;95.95;100240.38;4972887;28;20109;-69
2022/11/21 03:03:10;;;;;;;25.90;13.57;;;;;;;5.49;95.50;100242.63;4973251;28;20055;-69
2022/11/21 03:05:38;;;;;;;22.90;13.48;;;;;;;5.27;96.21;100239.13;4972459;28;20445;-69
2022/11/21 03:08:07;;;;;;;21.23;12.70;;;;;;;5.37;95.50;100241.94;4972850;28;20486;-69
2022/11/21 03:10:35;;;;;;;21.13;12.35;;;;;;;5.28;95.21;100230.72;4973434;28;20398;-68
2022/11/21 03:13:03;;;;;;;25.00;14.20;;;;;;;5.23;95.84;100219.84;4973436;28;20042;-69
2022/11/21 03:15:33;;;;;;;21.15;13.20;;;;;;;5.16;96.23;100221.88;4972172;28;20466;-69
2022/11/21 03:18:02;;;;;;;27.45;13.73;;;;;;;5.21;96.30;100214.66;4972955;28;20117;-69
2022/11/21 03:20:33;;;;;;;21.13;12.90;;;;;;;5.18;96.95;100206.19;4971561;28;20057;-69
2022/11/21 03:23:01;;;;;;;26.33;14.10;;;;;;;5.18;96.80;100211.63;4972695;28;20410;-69
2022/11/21 03:25:30;;;;;;;25.70;13.63;;;;;;;5.18;96.84;100208.91;4972071;28;20047;-69
2022/11/21 03:27:58;;;;;;;25.77;13.10;;;;;;;5.25;96.97;100210.34;4972894;28;20059;-69
2022/11/21 03:30:26;;;;;;;22.02;12.50;;;;;;;5.28;95.47;100219.06;4973038;28;20062;-68
2022/11/21 03:32:55;;;;;;;23.08;13.73;;;;;;;5.19;95.87;100211.34;4972596;28;20055;-69
2022/11/21 03:35:24;;;;;;;25.30;12.85;;;;;;;5.16;96.30;100208.31;4971685;28;20382;-69
2022/11/21 03:37:52;;;;;;;23.00;12.75;;;;;;;5.15;96.03;100215.66;4972729;28;20490;-69
2022/11/21 03:40:20;;;;;;;21.20;13.00;;;;;;;5.19;96.08;100210.53;4972634;28;20058;-69
2022/11/21 03:42:47;;;;;;;21.23;13.07;;;;;;;5.17;96.47;100204.53;4971892;28;20055;-69
2022/11/21 03:45:15;;;;;;;23.23;12.75;;;;;;;5.09;96.39;100212.06;4971583;28;20390;-69
2022/11/21 03:47:43;;;;;;;23.27;13.88;;;;;;;5.19;96.65;100215.97;4973130;28;20057;-69
2022/11/21 03:50:13;;;;;;;21.60;13.50;;;;;;;5.17;96.27;100212.69;4972628;28;20059;-69
2022/11/21 03:52:41;;;;;;;22.95;12.85;;;;;;;5.22;95.88;100210.84;4973011;28;20047;-69
2022/11/21 03:55:09;;;;;;;24.40;13.60;;;;;;;5.19;95.65;100205.91;4973360;28;20063;-69
2022/11/21 03:57:38;;;;;;;27.90;13.77;;;;;;;5.17;95.48;100196.41;4974960;28;20057;-69
2022/11/21 04:00:07;;;;;;;21.05;12.13;;;;;;;5.03;95.57;100187.84;4975938;28;20066;-69
2022/11/21 04:02:34;;;;;;;28.65;14.75;;;;;;;4.92;96.46;100185.00;4976352;28;20046;-69
2022/11/21 04:05:02;;;;;;;25.20;13.05;;;;;;;4.89;96.80;100182.78;4975534;28;20402;-68
2022/11/21 04:07:30;;;;;;;23.10;13.75;;;;;;;4.91;97.28;100183.38;4974701;28;20043;-69
2022/11/21 04:09:59;;;;;;;21.63;13.98;;;;;;;4.96;96.69;100190.72;4976384;28;20043;-69
2022/11/21 04:12:26;;;;;;;26.08;13.95;;;;;;;5.01;96.98;100185.38;4976291;28;20069;-69
2022/11/21 04:14:54;;;;;;;23.88;12.98;;;;;;;4.97;95.80;100190.50;4974132;28;20410;-69
2022/11/21 04:17:22;;;;;;;23.90;13.55;;;;;;;4.90;96.13;100197.16;4976186;28;20046;-69
2022/11/21 04:19:50;;;;;;;23.15;13.40;;;;;;;4.88;96.17;100193.91;4976206;28;20070;-69
2022/11/21 04:22:18;;;;;;;27.38;13.35;;;;;;;4.91;96.37;100201.50;4975402;28;20059;-69
2022/11/21 04:24:46;;;;;;;25.98;13.77;;;;;;;4.94;95.66;100192.88;4975275;28;20493;-69
2022/11/21 04:27:14;;;;;;;23.48;12.73;;;;;;;4.91;95.68;100187.94;4975986;28;20410;-69
2022/11/21 04:29:41;;;;;;;23.95;13.68;;;;;;;4.81;95.22;100205.75;4975860;28;20055;-69
2022/11/21 04:32:09;;;;;;;20.30;11.85;;;;;;;4.77;95.80;100210.03;4975943;28;20034;-68
2022/11/21 04:34:38;;;;;;;16.90;11.55;;;;;;;4.74;95.44;100207.78;4973304;28;20070;-69
2022/11/21 04:37:06;;;;;;;21.75;12.10;;;;;;;4.70;96.55;100201.25;4974767;28;20061;-68
2022/11/21 04:39:38;;;;;;;19.08;11.63;;;;;;;4.62;96.12;100197.06;4972626;28;20054;-69
2022/11/21 04:42:06;;;;;;;22.58;12.77;;;;;;;4.60;96.26;100193.81;4975527;28;20065;-69
2022/11/21 04:44:33;;;;;;;26.48;14.57;;;;;;;4.56;96.30;100188.03;4963772;28;20051;-69
2022/11/21 04:47:01;;;;;;;23.73;13.10;;;;;;;4.63;96.80;100187.03;4975215;28;20058;-68
2022/11/21 04:49:32;;;;;;;26.38;13.98;;;;;;;4.62;96.45;100190.81;4975275;28;20497;-68
2022/11/21 04:52:00;;;;;;;24.10;13.80;;;;;;;4.59;95.78;100185.91;4975094;28;20062;-68
2022/11/21 04:54:28;;;;;;;25.35;13.57;;;;;;;4.62;95.27;100185.41;4974329;28;20422;-68
2022/11/21 04:56:56;;;;;;;23.67;13.07;;;;;;;4.69;95.55;100196.88;4975528;28;20047;-69
2022/11/21 04:59:24;;;;;;;25.63;13.13;;;;;;;4.71;95.76;100194.75;4974623;28;20051;-69
2022/11/21 05:01:52;;;;;;;20.15;12.60;;;;;;;4.74;95.29;100196.94;4974449;28;20058;-69
2022/11/21 05:04:20;;;;;;;17.80;11.48;;;;;;;4.71;94.84;100192.84;4974846;28;20050;-69
2022/11/21 05:06:48;;;;;;;21.90;12.82;;;;;;;4.64;95.07;100200.34;4975160;28;20051;-69
2022/11/21 05:09:15;;;;;;;20.45;12.50;;;;;;;4.60;94.88;100196.50;4973279;28;20055;-69
2022/11/21 05:14:30;;;;;;;20.20;11.77;;;;;;;4.65;94.39;100187.63;4968119;28;20054;-68
2022/11/21 05:16:58;;;;;;;21.67;11.40;;;;;;;4.65;94.32;100195.75;4955716;28;20051;-68
2022/11/21 05:19:26;;;;;;;21.63;11.27;;;;;;;4.60;93.61;100198.38;4954908;28;20062;-69
2022/11/21 05:21:55;;;;;;;19.15;11.27;;;;;;;4.58;93.93;100190.50;4955702;29;20054;-68
2022/11/21 05:24:23;;;;;;;20.77;11.63;;;;;;;4.55;95.26;100186.41;4964197;28;20059;-68
2022/11/21 05:26:51;;;;;;;20.85;11.38;;;;;;;4.54;94.68;100184.75;4975072;28;20700;-69
2022/11/21 05:29:18;;;;;;;18.77;10.55;;;;;;;4.48;94.63;100187.63;4974446;28;20056;-68
2022/11/21 05:31:54;;;;;;;18.05;10.35;;;;;;;4.44;94.40;100184.59;4974369;28;20058;-68
2022/11/21 05:34:22;;;;;;;17.15;11.05;;;;;;;4.52;94.56;100178.78;4973353;28;20039;-68
2022/11/21 05:36:56;;;;;;;17.65;11.40;;;;;;;4.57;95.17;100173.44;4970999;28;20498;-69
2022/11/21 05:39:24;;;;;;;19.27;11.45;;;;;;;4.59;94.98;100175.06;4973126;28;20054;-68
2022/11/21 05:41:53;;;;;;;17.38;10.57;;;;;;;4.56;94.77;100176.38;4974192;28;20513;-68
2022/11/21 05:44:27;;;;;;;19.52;10.93;;;;;;;4.61;93.97;100168.34;4971635;28;20050;-68
2022/11/21 05:46:56;;;;;;;20.20;10.65;;;;;;;4.62;94.72;100169.13;4966136;28;20047;-68
2022/11/21 05:49:24;;;;;;;17.83;10.95;;;;;;;4.67;94.02;100150.22;4969590;28;20058;-68
2022/11/21 05:51:52;;;;;;;17.35;10.35;;;;;;;4.63;93.59;100147.22;4974045;28;20059;-68
2022/11/21 05:54:22;;;;;;;18.48;11.00;;;;;;;4.61;93.81;100145.81;4973056;28;20058;-68
2022/11/21 05:56:50;;;;;;;18.85;10.43;;;;;;;4.60;94.31;100155.03;4974535;28;20053;-68
2022/11/21 05:59:18;;;;;;;19.13;10.73;;;;;;;4.51;94.26;100155.47;4972634;28;20058;-68
2022/11/21 06:04:34;;;;;;;16.25;9.77;;;;;;;4.62;93.89;100159.13;4972927;28;20498;-68
2022/11/21 06:07:02;;;;;;;17.45;10.75;;;;;;;4.63;93.52;100165.34;4973708;28;20054;-69
2022/11/21 06:09:29;;;;;;;14.85;9.25;;;;;;;4.71;93.29;100163.03;4972330;28;20442;-68
2022/11/21 06:11:57;;;;;;;18.10;10.55;;;;;;;4.67;93.17;100166.50;4971797;28;20051;-69
2022/11/21 06:14:25;;;;;;;18.63;10.13;;;;;;;4.67;94.01;100171.91;4961101;28;20059;-68
2022/11/21 06:16:53;;;;;;;19.67;10.35;;;;;;;4.65;93.64;100172.16;4963204;28;20047;-68
2022/11/21 06:19:21;;;;;;;15.55;10.45;;;;;;;4.69;94.06;100172.47;4972454;28;20409;-68
2022/11/21 06:21:49;;;;;;;18.60;10.50;;;;;;;4.74;94.27;100167.13;4973026;28;20054;-68
2022/11/21 06:24:17;;;;;;;14.40;9.60;;;;;;;4.81;92.78;100156.13;4972320;28;20046;-68
2022/11/21 06:26:49;;;;;;;17.70;10.88;;;;;;;4.79;92.76;100150.13;4956766;28;20063;-68
2022/11/21 06:29:16;;;;;;;18.73;10.32;;;;;;;4.78;93.20;100148.47;4961611;28;20046;-68
2022/11/21 06:31:44;;;;;;;18.08;10.38;;;;;;;4.75;92.32;100140.84;4973487;28;20401;-68
2022/11/21 06:34:12;;;;;;;15.95;9.88;;;;;;;4.76;92.82;100143.31;4973200;28;20046;-68
2022/11/21 06:36:40;;;;;;;20.67;10.63;;;;;;;4.75;92.53;100141.69;4972855;28;20050;-68
2022/11/21 06:39:08;;;;;;;15.82;9.45;;;;;;;4.79;92.67;100144.72;4973114;28;20054;-68
2022/11/21 06:41:36;;;;;;;18.42;10.38;;;;;;;4.76;92.20;100145.19;4972976;28;20055;-68
2022/11/21 06:44:04;;;;;;;18.13;10.15;;;;;;;4.83;92.24;100154.78;4964908;28;20065;-68
2022/11/21 06:46:32;;;;;;;18.95;9.55;;;;;;;5.16;90.72;100165.75;4971554;28;20047;-68
2022/11/21 06:49:00;;;;;;;15.30;8.85;;;;;;;5.27;90.44;100174.81;4953656;28;20051;-68
2022/11/21 06:51:29;;;;;;;18.90;9.90;;;;;;;5.42;88.25;100178.78;4954040;29;20077;-68
2022/11/21 06:53:58;;;;;;;17.20;9.50;;;;;;;5.49;87.85;100161.19;4953741;28;20085;-68
2022/11/21 06:56:28;;;;;;;16.63;10.30;;;;;;;5.49;87.94;100158.50;4953733;29;20047;-68
2022/11/21 06:58:57;;;;;;;16.25;9.40;;;;;;;5.56;87.72;100169.16;4954056;29;20051;-68
2022/11/21 07:01:27;;;;;;;16.52;8.90;;;;;;;5.54;87.80;100176.75;4953406;28;20063;-69
2022/11/21 07:03:55;;;;;;;16.17;9.35;;;;;;;5.48;88.00;100172.34;4953916;28;20047;-68
2022/11/21 07:06:23;;;;;;;19.20;9.48;;;;;;;5.44;89.06;100173.91;4953950;28;20058;-68
2022/11/21 07:08:53;;;;;;;16.38;9.20;;;;;;;5.37;88.45;100184.97;4954056;29;20043;-68
2022/11/21 07:11:41;;;;;;;16.83;9.80;;;;;;;5.38;88.16;100190.13;4953863;29;20039;-68
2022/11/21 07:14:09;;;;;;;19.65;10.27;;;;;;;5.47;87.84;100181.56;4953392;28;20047;-68
2022/11/21 07:16:37;;;;;;;17.92;10.65;;;;;;;5.61;87.93;100193.63;4953419;28;20062;-68
2022/11/21 07:19:05;;;;;;;21.85;9.90;;;;;;;5.57;86.87;100197.94;4953037;28;20066;-68
2022/11/21 07:21:33;;;;;;;18.15;9.10;;;;;;;5.68;87.39;100193.44;4953720;29;20506;-68
2022/11/21 07:24:02;;;;;;;19.63;10.10;;;;;;;5.96;85.89;100191.50;4953647;29;20058;-68
2022/11/21 07:26:30;;;;;;;20.92;10.68;;;;;;;6.03;85.83;100199.47;4953181;28;20489;-68
2022/11/21 07:28:58;;;;;;;15.45;10.13;;;;;;;6.08;84.94;100204.13;4954166;28;20054;-68
2022/11/21 07:31:26;;;;;;;19.77;10.27;;;;;;;6.30;84.22;100213.00;4957049;28;20406;-69
2022/11/21 07:33:53;;;;;;;18.98;8.73;;;;;;;6.43;82.68;100213.63;4957563;29;20046;-68
2022/11/21 07:36:21;;;;;;;16.25;10.13;;;;;;;6.50;82.63;100221.59;4956646;28;20055;-68
2022/11/21 07:38:49;;;;;;;24.10;9.25;;;;;;;6.53;82.56;100211.00;4956387;28;20063;-69
2022/11/21 07:41:17;;;;;;;17.63;8.57;;;;;;;6.40;82.55;100222.34;4957220;28;20074;-68
2022/11/21 07:43:45;;;;;;;17.52;8.90;;;;;;;6.43;83.31;100225.34;4957387;29;20054;-68
2022/11/21 07:46:13;;;;;;;17.77;9.93;;;;;;;6.48;83.78;100230.00;4956483;28;20050;-68
2022/11/21 07:48:41;;;;;;;20.52;11.45;;;;;;;6.51;85.62;100234.88;4956327;28;20051;-68
2022/11/21 07:51:09;;;;;;;19.33;10.90;;;;;;;6.50;84.50;100227.00;4956716;28;20059;-68
2022/11/21 07:53:37;;;;;;;17.23;10.52;;;;;;;6.86;84.71;100216.34;4957172;29;20051;-68
2022/11/21 07:56:08;;;;;;;21.23;11.02;;;;;;;7.05;82.99;100214.00;4957180;29;20047;-68
2022/11/21 07:58:36;;;;;;;18.52;10.27;;;;;;;7.05;82.44;100214.00;4956398;28;20418;-68
2022/11/21 08:01:05;;;;;;;20.95;10.63;;;;;;;7.12;83.38;100217.31;4956696;29;20078;-69
2022/11/21 08:03:33;;;;;;;52.40;18.85;;;;;;;7.17;83.84;100218.38;4957184;29;20043;-68
2022/11/21 08:06:04;;;;;;;25.38;13.35;;;;;;;7.15;83.30;100215.13;4956682;28;20498;-71
2022/11/21 08:08:32;;;;;;;25.25;12.90;;;;;;;6.90;84.65;100206.59;4956950;29;20044;-68
2022/11/21 08:11:04;;;;;;;24.25;12.82;;;;;;;6.96;85.84;100210.97;4956122;28;20043;-68
2022/11/21 08:13:33;;;;;;;25.85;13.25;;;;;;;7.06;85.41;100220.25;4956929;29;20047;-69
2022/11/21 08:16:03;;;;;;;33.13;17.15;;;;;;;6.95;86.83;100220.19;4956191;28;20043;-69
2022/11/21 08:18:32;;;;;;;28.50;16.13;;;;;;;7.06;87.18;100222.97;4956857;29;20058;-69
2022/11/21 08:21:01;;;;;;;30.00;15.27;;;;;;;7.30;86.51;100227.97;4956304;28;20062;-69
2022/11/21 08:23:30;;;;;;;28.25;16.02;;;;;;;7.54;86.40;100222.88;4956463;29;20414;-69
2022/11/21 08:25:58;;;;;;;36.05;17.20;;;;;;;7.65;86.06;100224.56;4956011;28;20055;-69
2022/11/21 08:28:26;;;;;;;30.70;17.17;;;;;;;7.72;85.80;100210.66;4956096;28;20055;-69
2022/11/21 08:30:54;;;;;;;36.25;17.55;;;;;;;7.84;86.58;100212.31;4956142;29;20058;-69
2022/11/21 08:33:22;;;;;;;33.88;17.27;;;;;;;8.04;85.73;100212.34;4956176;28;20398;-69
2022/11/21 08:35:50;;;;;;;37.72;16.40;;;;;;;8.09;84.89;100214.25;4955908;28;20055;-69
2022/11/21 08:38:18;;;;;;;33.72;17.10;;;;;;;8.18;85.11;100209.88;4956120;28;20062;-69
2022/11/21 08:40:46;;;;;;;30.00;15.75;;;;;;;8.20;84.87;100212.31;4955235;28;20086;-69
2022/11/21 08:43:14;;;;;;;38.78;18.95;;;;;;;8.50;84.95;100212.59;4955447;28;20384;-69
2022/11/21 08:45:42;;;;;;;33.25;17.55;;;;;;;8.40;85.21;100206.03;4956006;28;20055;-69
2022/11/21 08:48:10;;;;;;;31.58;17.55;;;;;;;8.46;84.74;100195.97;4955507;28;20051;-69
2022/11/21 08:50:38;;;;;;;37.30;17.63;;;;;;;8.33;85.10;100200.88;4955480;28;20055;-68
2022/11/21 08:53:06;;;;;;;28.90;17.08;;;;;;;8.47;84.13;100205.78;4955615;28;20047;-68
2022/11/21 08:55:34;;;;;;;23.40;14.32;;;;;;;8.24;83.80;100205.25;4955346;28;20055;-68
2022/11/21 08:58:02;;;;;;;27.73;14.52;;;;;;;8.40;82.33;100206.03;4955513;28;20051;-69
2022/11/21 09:00:30;;;;;;;27.67;13.05;;;;;;;8.54;82.14;100198.16;4955057;28;20491;-68
2022/11/21 09:02:58;;;;;;;21.65;13.32;;;;;;;8.77;82.08;100187.75;4955102;28;20070;-69
2022/11/21 09:05:25;;;;;;;31.50;13.27;;;;;;;8.87;82.12;100184.16;4955090;28;20050;-69
2022/11/21 09:07:57;;;;;;;33.08;15.70;;;;;;;8.86;82.29;100177.88;4956022;29;20043;-69
2022/11/21 09:10:25;;;;;;;32.15;16.02;;;;;;;9.08;82.89;100176.72;4955552;28;20055;-69
2022/11/21 09:12:54;;;;;;;31.08;17.05;;;;;;;9.19;83.83;100179.41;4963169;28;20050;-69
2022/11/21 09:18:10;;;;;;;34.67;17.50;;;;;;;9.33;83.37;100174.13;4973916;28;20062;-68
2022/11/21 09:20:41;;;;;;;33.63;18.65;;;;;;;9.75;82.20;100188.34;4974498;28;20058;-68
2022/11/21 09:23:11;;;;;;;35.55;19.70;;;;;;;10.20;81.06;100202.78;4974746;28;20062;-68
2022/11/21 09:25:40;;;;;;;40.13;18.58;;;;;;;10.28;79.96;100200.50;4974965;28;20410;-68
2022/11/21 09:28:09;;;;;;;33.25;19.10;;;;;;;9.88;82.84;100197.84;4974893;28;20050;-68
2022/11/21 09:30:38;;;;;;;38.75;20.08;;;;;;;9.81;83.09;100189.94;4974743;28;20050;-68
2022/11/21 09:33:10;;;;;;;33.90;19.88;;;;;;;10.11;82.51;100187.28;4973952;28;20057;-68
2022/11/21 09:35:38;;;;;;;41.05;20.67;;;;;;;10.34;81.96;100188.41;4974061;28;20050;-68
2022/11/21 09:38:06;;;;;;;34.15;18.52;;;;;;;9.93;82.97;100189.59;4974724;28;20054;-68
2022/11/21 09:40:34;;;;;;;36.65;20.58;;;;;;;10.12;82.64;100188.91;4973641;28;20603;-68
2022/11/21 09:43:34;;;;;;;41.70;20.67;;;;;;;10.01;82.76;100183.50;4974294;28;20046;-68
2022/11/21 09:46:17;;;;;;;38.97;19.75;;;;;;;10.16;83.72;100177.09;4974075;28;20520;-68
2022/11/21 09:48:57;;;;;;;37.28;20.85;;;;;;;10.03;83.76;100177.75;4974483;28;20053;-68
2022/11/21 09:51:28;;;;;;;36.75;19.85;;;;;;;10.06;83.69;100167.06;4973640;28;20058;-68
2022/11/21 09:54:11;;;;;;;38.55;23.65;;;;;;;10.69;81.19;100164.56;4973538;28;20050;-68
2022/11/21 09:56:41;;;;;;;39.53;19.80;;;;;;;10.02;82.87;100165.19;4973975;28;20502;-68
2022/11/21 09:59:37;;;;;;;36.80;19.95;;;;;;;10.32;83.26;100171.50;4974316;28;20502;-68
2022/11/21 10:02:14;;;;;;;39.40;21.35;;;;;;;10.50;82.40;100164.50;4973695;28;20074;-68
2022/11/21 10:04:44;;;;;;;44.15;22.88;;;;;;;10.19;84.20;100165.59;4972935;28;20054;-68
2022/11/21 10:07:19;;;;;;;33.75;20.30;;;;;;;10.06;83.39;100161.59;4973514;28;20043;-68
2022/11/21 10:10:19;;;;;;;43.33;21.75;;;;;;;10.28;84.45;100164.97;4973625;28;20062;-68
2022/11/21 10:12:59;;;;;;;38.20;21.17;;;;;;;10.39;82.92;100171.97;4973122;28;20047;-68
2022/11/21 10:15:42;;;;;;;39.33;21.65;;;;;;;10.45;82.50;100162.63;4973495;28;20439;-68
2022/11/21 10:18:39;;;;;;;34.20;20.27;;;;;;;10.15;85.06;100161.78;4973532;28;20387;-68
2022/11/21 10:21:40;;;;;;;36.42;21.08;;;;;;;10.56;82.50;100162.53;4973275;28;20061;-68
2022/11/21 10:24:16;;;;;;;35.78;20.60;;;;;;;10.71;83.13;100151.41;4972847;28;20050;-68
2022/11/21 10:27:00;;;;;;;41.90;22.58;;;;;;;10.82;82.24;100146.63;4972977;28;20047;-68
2022/11/21 10:29:37;;;;;;;38.50;22.33;;;;;;;11.08;81.74;100137.25;4972859;28;20058;-68
2022/11/21 10:32:38;;;;;;;41.25;22.05;;;;;;;11.29;81.60;100140.53;4973617;28;20122;-68
2022/11/21 10:35:20;;;;;;;40.42;22.20;;;;;;;10.81;83.11;100141.44;4972843;28;20058;-68
2022/11/21 10:37:59;;;;;;;42.75;21.95;;;;;;;10.71;83.01;100132.25;4973131;28;20129;-68
2022/11/21 10:40:43;;;;;;;42.50;22.30;;;;;;;11.15;81.39;100124.06;4973423;28;20055;-68
2022/11/21 10:46:00;;;;;;;39.80;22.50;;;;;;;11.12;81.75;100114.50;4972919;28;20055;-68
2022/11/21 10:48:28;;;;;;;46.38;24.20;;;;;;;11.25;81.35;100101.97;4973426;28;20051;-68
2022/11/21 10:51:26;;;;;;;42.97;25.13;;;;;;;11.16;81.94;100099.09;4971421;28;20055;-68
2022/11/21 10:57:18;;;;;;;43.50;24.23;;;;;;;11.13;83.34;100094.22;4972753;28;20054;-68
2022/11/21 11:00:13;;;;;;;50.03;24.60;;;;;;;10.94;83.47;100087.91;4973113;28;20498;-68
2022/11/21 11:03:00;;;;;;;56.47;29.00;;;;;;;10.93;83.50;100084.34;4972976;28;20050;-69
2022/11/21 11:05:30;;;;;;;45.60;26.02;;;;;;;10.98;84.37;100087.03;4973539;28;20050;-68
2022/11/21 11:08:10;;;;;;;56.25;26.83;;;;;;;10.84;83.20;100097.06;4972390;28;20051;-68
2022/11/21 11:10:56;;;;;;;46.85;26.27;;;;;;;10.76;83.63;100090.34;4973142;28;20055;-69
2022/11/21 11:16:16;;;;;;;45.25;24.38;;;;;;;9.80;87.26;100074.38;4971885;28;20058;-68
2022/11/21 11:18:50;;;;;;;44.88;23.98;;;;;;;9.46;88.81;100068.91;4972726;28;20051;-69
2022/11/21 11:21:24;;;;;;;49.15;26.52;;;;;;;9.76;89.20;100073.31;4973072;28;20362;-68
2022/11/21 11:23:53;;;;;;;48.95;26.08;;;;;;;9.84;88.64;100071.88;4973074;28;20059;-68
2022/11/21 11:26:30;;;;;;;52.55;26.02;;;;;;;9.98;88.05;100071.19;4973170;28;20409;-68
2022/11/21 11:29:13;;;;;;;53.33;28.95;;;;;;;9.60;88.87;100061.69;4940230;28;20836;-68
2022/11/21 11:31:53;;;;;;;58.25;30.02;;;;;;;9.55;90.31;100056.28;4940099;28;20509;-68
2022/11/21 11:34:25;;;;;;;60.95;28.80;;;;;;;9.21;91.04;100054.34;4940162;28;20121;-68
2022/11/21 11:37:09;;;;;;;55.63;28.70;;;;;;;9.01;92.98;100042.47;4955758;28;20042;-68
2022/11/21 11:39:56;;;;;;;59.60;29.38;;;;;;;9.29;92.37;100034.59;4940052;28;20054;-68
2022/11/21 11:48:28;;;;;;;55.92;30.77;;;;;;;9.94;88.96;100019.81;4955747;28;20043;-68
2022/11/21 11:51:08;;;;;;;59.58;30.67;;;;;;;10.02;87.91;100018.38;4939851;28;20054;-68
2022/11/21 11:53:40;;;;;;;58.45;30.25;;;;;;;9.81;88.40;100010.41;4939847;28;20062;-68
2022/11/21 11:56:17;;;;;;;54.92;29.35;;;;;;;9.89;88.26;100011.69;4940113;28;20120;-68
2022/11/21 11:58:52;;;;;;;51.25;27.65;;;;;;;9.97;87.60;100020.38;4939998;28;20054;-69